sensor_id;sensor_type;location;lat;lon;timestamp;temperature;humidity
10726;DHT22;5414;59.782;16.378;2023-11-21T00:01:01;1.00;99.90
10726;DHT22;5414;59.782;16.378;2023-11-21T00:03:29;0.90;99.90
10726;DHT22;5414;59.782;16.378;2023-11-21T00:05:55;1.00;99.90
10726;DHT22;5414;59.782;16.378;2023-11-21T00:08:21;1.00;99.90
10726;DHT22;5414;59.782;16.378;2023-11-21T00:10:46;1.00;99.90
10726;DHT22;5414;59.782;16.378;2023-11-21T00:13:13;1.00;99.90
10726;DHT22;5414;59.782;16.378;2023-11-21T00:15:39;0.90;99.90
10726;DHT22;5414;59.782;16.378;2023-11-21T00:20:31;0.80;99.90
10726;DHT22;5414;59.782;16.378;2023-11-21T00:22:57;0.80;99.90
10726;DHT22;5414;59.782;16.378;2023-11-21T00:25:23;0.70;99.90
10726;DHT22;5414;59.782;16.378;2023-11-21T00:27:49;0.60;99.90
10726;DHT22;5414;59.782;16.378;2023-11-21T00:30:15;0.60;99.90
10726;DHT22;5414;59.782;16.378;2023-11-21T00:32:41;0.60;99.90
10726;DHT22;5414;59.782;16.378;2023-11-21T00:35:07;0.50;99.90
10726;DHT22;5414;59.782;16.378;2023-11-21T00:37:32;0.30;99.90
10726;DHT22;5414;59.782;16.378;2023-11-21T00:39:58;0.40;99.90
10726;DHT22;5414;59.782;16.378;2023-11-21T00:42:24;0.50;99.90
10726;DHT22;5414;59.782;16.378;2023-11-21T00:44:49;0.40;99.90
10726;DHT22;5414;59.782;16.378;2023-11-21T00:47:15;0.40;99.90
10726;DHT22;5414;59.782;16.378;2023-11-21T00:49:41;0.30;99.90
10726;DHT22;5414;59.782;16.378;2023-11-21T00:52:07;0.20;99.90
10726;DHT22;5414;59.782;16.378;2023-11-21T00:54:32;0.20;99.90
10726;DHT22;5414;59.782;16.378;2023-11-21T00:59:25;0.20;99.90
10726;DHT22;5414;59.782;16.378;2023-11-21T01:11:35;0.20;99.90
10726;DHT22;5414;59.782;16.378;2023-11-21T01:14:02;0.10;99.90
10726;DHT22;5414;59.782;16.378;2023-11-21T01:16:29;0.00;99.90
10726;DHT22;5414;59.782;16.378;2023-11-21T01:18:54;0.00;99.90
10726;DHT22;5414;59.782;16.378;2023-11-21T01:21:20;0.10;99.90
10726;DHT22;5414;59.782;16.378;2023-11-21T01:23:45;0.20;99.90
10726;DHT22;5414;59.782;16.378;2023-11-21T01:26:12;0.20;99.90
10726;DHT22;5414;59.782;16.378;2023-11-21T01:28:38;0.30;99.90
10726;DHT22;5414;59.782;16.378;2023-11-21T01:31:04;0.10;99.90
10726;DHT22;5414;59.782;16.378;2023-11-21T01:33:29;0.10;99.90
10726;DHT22;5414;59.782;16.378;2023-11-21T01:45:40;0.00;99.90
10726;DHT22;5414;59.782;16.378;2023-11-21T01:48:06;0.00;99.90
10726;DHT22;5414;59.782;16.378;2023-11-21T01:50:33;0.10;99.90
10726;DHT22;5414;59.782;16.378;2023-11-21T01:52:59;0.10;99.90
10726;DHT22;5414;59.782;16.378;2023-11-21T01:55:27;0.10;99.90
10726;DHT22;5414;59.782;16.378;2023-11-21T01:57:53;0.10;99.90
10726;DHT22;5414;59.782;16.378;2023-11-21T02:00:19;0.10;99.90
10726;DHT22;5414;59.782;16.378;2023-11-21T02:02:46;0.20;99.90
10726;DHT22;5414;59.782;16.378;2023-11-21T02:12:33;0.30;99.90
10726;DHT22;5414;59.782;16.378;2023-11-21T02:15:03;0.20;99.90
10726;DHT22;5414;59.782;16.378;2023-11-21T02:17:37;0.30;99.90
10726;DHT22;5414;59.782;16.378;2023-11-21T02:20:03;0.30;99.90
10726;DHT22;5414;59.782;16.378;2023-11-21T02:22:37;0.30;99.90
10726;DHT22;5414;59.782;16.378;2023-11-21T02:25:06;0.40;99.90
10726;DHT22;5414;59.782;16.378;2023-11-21T02:29:59;0.30;99.90
10726;DHT22;5414;59.782;16.378;2023-11-21T02:32:26;0.30;99.90
10726;DHT22;5414;59.782;16.378;2023-11-21T02:34:52;0.20;99.90
10726;DHT22;5414;59.782;16.378;2023-11-21T02:37:17;0.30;99.90
10726;DHT22;5414;59.782;16.378;2023-11-21T02:39:43;0.20;99.90
10726;DHT22;5414;59.782;16.378;2023-11-21T02:42:08;0.30;99.90
10726;DHT22;5414;59.782;16.378;2023-11-21T02:44:34;0.30;99.90
10726;DHT22;5414;59.782;16.378;2023-11-21T02:47:00;0.30;99.90
10726;DHT22;5414;59.782;16.378;2023-11-21T02:49:26;0.30;99.90
10726;DHT22;5414;59.782;16.378;2023-11-21T02:51:54;0.20;99.90
10726;DHT22;5414;59.782;16.378;2023-11-21T02:54:20;0.20;99.90
10726;DHT22;5414;59.782;16.378;2023-11-21T03:01:41;0.10;99.90
10726;DHT22;5414;59.782;16.378;2023-11-21T03:04:06;0.10;99.90
10726;DHT22;5414;59.782;16.378;2023-11-21T03:06:32;0.10;99.90
10726;DHT22;5414;59.782;16.378;2023-11-21T03:08:59;0.10;99.90
10726;DHT22;5414;59.782;16.378;2023-11-21T03:11:25;0.10;99.90
10726;DHT22;5414;59.782;16.378;2023-11-21T03:13:51;0.10;99.90
10726;DHT22;5414;59.782;16.378;2023-11-21T03:16:16;0.20;99.90
10726;DHT22;5414;59.782;16.378;2023-11-21T03:18:42;0.10;99.90
10726;DHT22;5414;59.782;16.378;2023-11-21T03:23:35;0.00;99.90
10726;DHT22;5414;59.782;16.378;2023-11-21T03:26:01;0.20;99.90
10726;DHT22;5414;59.782;16.378;2023-11-21T03:28:27;0.00;99.90
10726;DHT22;5414;59.782;16.378;2023-11-21T03:30:53;0.10;99.90
10726;DHT22;5414;59.782;16.378;2023-11-21T03:33:19;0.20;99.90
10726;DHT22;5414;59.782;16.378;2023-11-21T03:35:44;0.20;99.90
10726;DHT22;5414;59.782;16.378;2023-11-21T03:38:10;0.20;99.90
10726;DHT22;5414;59.782;16.378;2023-11-21T03:40:36;0.20;99.90
10726;DHT22;5414;59.782;16.378;2023-11-21T03:43:02;0.40;99.90
10726;DHT22;5414;59.782;16.378;2023-11-21T03:45:27;0.30;99.90
10726;DHT22;5414;59.782;16.378;2023-11-21T03:47:53;0.20;99.90
10726;DHT22;5414;59.782;16.378;2023-11-21T03:50:18;0.00;99.90
10726;DHT22;5414;59.782;16.378;2023-11-21T03:52:44;0.00;99.90
10726;DHT22;5414;59.782;16.378;2023-11-21T03:55:10;0.10;99.90
10726;DHT22;5414;59.782;16.378;2023-11-21T03:57:36;0.20;99.90
10726;DHT22;5414;59.782;16.378;2023-11-21T04:00:02;0.10;99.90
10726;DHT22;5414;59.782;16.378;2023-11-21T04:02:29;0.20;99.90
10726;DHT22;5414;59.782;16.378;2023-11-21T04:04:57;0.20;99.90
10726;DHT22;5414;59.782;16.378;2023-11-21T04:07:22;0.20;99.90
10726;DHT22;5414;59.782;16.378;2023-11-21T04:09:48;0.20;99.90
10726;DHT22;5414;59.782;16.378;2023-11-21T04:12:14;0.10;99.90
10726;DHT22;5414;59.782;16.378;2023-11-21T04:14:39;0.20;99.90
10726;DHT22;5414;59.782;16.378;2023-11-21T04:17:05;0.30;99.90
10726;DHT22;5414;59.782;16.378;2023-11-21T04:19:31;0.30;99.90
10726;DHT22;5414;59.782;16.378;2023-11-21T04:26:49;0.30;99.90
10726;DHT22;5414;59.782;16.378;2023-11-21T05:13:08;0.10;99.90
10726;DHT22;5414;59.782;16.378;2023-11-21T05:15:36;0.00;99.90
10726;DHT22;5414;59.782;16.378;2023-11-21T05:35:07;-0.20;99.90
10726;DHT22;5414;59.782;16.378;2023-11-21T05:37:37;0.00;99.90
10726;DHT22;5414;59.782;16.378;2023-11-21T05:40:05;0.00;99.90
10726;DHT22;5414;59.782;16.378;2023-11-21T05:42:35;0.00;99.90
10726;DHT22;5414;59.782;16.378;2023-11-21T05:47:46;0.00;99.90
10726;DHT22;5414;59.782;16.378;2023-11-21T05:50:15;-0.10;99.90
10726;DHT22;5414;59.782;16.378;2023-11-21T05:52:42;-0.10;99.90
10726;DHT22;5414;59.782;16.378;2023-11-21T05:55:08;-0.20;99.90
10726;DHT22;5414;59.782;16.378;2023-11-21T07:11:37;-0.20;99.90
10726;DHT22;5414;59.782;16.378;2023-11-21T07:16:38;0.50;99.90
10726;DHT22;5414;59.782;16.378;2023-11-21T07:19:04;0.40;99.90
10726;DHT22;5414;59.782;16.378;2023-11-21T09:33:37;0.80;99.90
10726;DHT22;5414;59.782;16.378;2023-11-21T09:36:04;0.70;99.90
10726;DHT22;5414;59.782;16.378;2023-11-21T09:38:30;0.60;99.90
10726;DHT22;5414;59.782;16.378;2023-11-21T09:40:56;0.60;99.90
10726;DHT22;5414;59.782;16.378;2023-11-21T09:43:25;0.80;99.90
10726;DHT22;5414;59.782;16.378;2023-11-21T09:46:00;0.70;99.90
10726;DHT22;5414;59.782;16.378;2023-11-21T09:50:54;0.80;99.90
10726;DHT22;5414;59.782;16.378;2023-11-21T09:53:21;0.80;99.90
10726;DHT22;5414;59.782;16.378;2023-11-21T09:55:48;0.80;99.90
10726;DHT22;5414;59.782;16.378;2023-11-21T09:58:16;0.80;99.90
10726;DHT22;5414;59.782;16.378;2023-11-21T10:00:44;0.80;99.90
10726;DHT22;5414;59.782;16.378;2023-11-21T10:03:10;0.90;99.90
10726;DHT22;5414;59.782;16.378;2023-11-21T10:05:37;0.80;99.90
10726;DHT22;5414;59.782;16.378;2023-11-21T10:08:11;0.80;99.90
10726;DHT22;5414;59.782;16.378;2023-11-21T10:10:38;0.90;99.90
10726;DHT22;5414;59.782;16.378;2023-11-21T10:15:37;0.90;99.90
10726;DHT22;5414;59.782;16.378;2023-11-21T10:18:04;0.80;99.90
10726;DHT22;5414;59.782;16.378;2023-11-21T10:20:32;0.80;99.90
10726;DHT22;5414;59.782;16.378;2023-11-21T10:22:59;0.80;99.90
10726;DHT22;5414;59.782;16.378;2023-11-21T10:25:27;0.90;99.90
10726;DHT22;5414;59.782;16.378;2023-11-21T10:27:59;0.90;99.90
10726;DHT22;5414;59.782;16.378;2023-11-21T10:30:39;0.90;99.90
10726;DHT22;5414;59.782;16.378;2023-11-21T10:33:06;1.00;99.90
10726;DHT22;5414;59.782;16.378;2023-11-21T10:35:46;1.10;99.90
10726;DHT22;5414;59.782;16.378;2023-11-21T10:38:23;1.10;99.90
10726;DHT22;5414;59.782;16.378;2023-11-21T10:40:50;0.90;99.90
10726;DHT22;5414;59.782;16.378;2023-11-21T10:43:16;0.70;99.90
10726;DHT22;5414;59.782;16.378;2023-11-21T10:48:15;0.70;99.90
10726;DHT22;5414;59.782;16.378;2023-11-21T10:50:41;0.90;99.90
10726;DHT22;5414;59.782;16.378;2023-11-21T10:53:06;0.90;99.90
10726;DHT22;5414;59.782;16.378;2023-11-21T10:55:33;1.00;99.90
10726;DHT22;5414;59.782;16.378;2023-11-21T10:58:02;1.00;99.90
10726;DHT22;5414;59.782;16.378;2023-11-21T11:00:30;1.00;99.90
10726;DHT22;5414;59.782;16.378;2023-11-21T11:02:56;1.00;99.90
10726;DHT22;5414;59.782;16.378;2023-11-21T11:05:23;1.00;99.90
10726;DHT22;5414;59.782;16.378;2023-11-21T11:07:59;1.00;99.90
10726;DHT22;5414;59.782;16.378;2023-11-21T11:10:29;1.00;99.90
10726;DHT22;5414;59.782;16.378;2023-11-21T11:15:24;0.90;99.90
10726;DHT22;5414;59.782;16.378;2023-11-21T11:38:59;1.10;99.90
10726;DHT22;5414;59.782;16.378;2023-11-21T11:41:30;1.10;99.90
10726;DHT22;5414;59.782;16.378;2023-11-21T11:43:58;0.90;99.90
10726;DHT22;5414;59.782;16.378;2023-11-21T11:46:44;0.90;99.90
10726;DHT22;5414;59.782;16.378;2023-11-21T11:49:33;1.00;99.90
10726;DHT22;5414;59.782;16.378;2023-11-21T11:52:34;0.80;99.90
10726;DHT22;5414;59.782;16.378;2023-11-21T11:55:02;0.80;99.90
10726;DHT22;5414;59.782;16.378;2023-11-21T12:02:53;0.90;99.90
10726;DHT22;5414;59.782;16.378;2023-11-21T12:05:20;0.80;99.90
10726;DHT22;5414;59.782;16.378;2023-11-21T12:10:19;0.80;99.90
10726;DHT22;5414;59.782;16.378;2023-11-21T12:12:49;0.80;99.90
10726;DHT22;5414;59.782;16.378;2023-11-21T12:15:15;0.80;99.90
10726;DHT22;5414;59.782;16.378;2023-11-21T12:17:42;0.90;99.90
10726;DHT22;5414;59.782;16.378;2023-11-21T12:20:16;0.90;99.90
10726;DHT22;5414;59.782;16.378;2023-11-21T12:22:44;0.90;99.90
10726;DHT22;5414;59.782;16.378;2023-11-21T12:25:17;0.90;99.90
10726;DHT22;5414;59.782;16.378;2023-11-21T12:27:48;0.90;99.90
10726;DHT22;5414;59.782;16.378;2023-11-21T12:30:16;0.80;99.90
10726;DHT22;5414;59.782;16.378;2023-11-21T12:32:49;0.80;99.90
10726;DHT22;5414;59.782;16.378;2023-11-21T12:35:20;0.80;99.90
10726;DHT22;5414;59.782;16.378;2023-11-21T12:37:47;0.80;99.90
10726;DHT22;5414;59.782;16.378;2023-11-21T12:40:15;0.80;99.90
10726;DHT22;5414;59.782;16.378;2023-11-21T12:47:37;0.80;99.90
10726;DHT22;5414;59.782;16.378;2023-11-21T12:50:03;0.60;99.90
10726;DHT22;5414;59.782;16.378;2023-11-21T12:52:31;0.70;99.90
10726;DHT22;5414;59.782;16.378;2023-11-21T12:54:56;0.80;99.90
10726;DHT22;5414;59.782;16.378;2023-11-21T12:57:25;0.80;99.90
10726;DHT22;5414;59.782;16.378;2023-11-21T12:59:57;0.80;99.90
10726;DHT22;5414;59.782;16.378;2023-11-21T13:02:26;0.80;99.90
10726;DHT22;5414;59.782;16.378;2023-11-21T13:04:52;0.80;99.90
10726;DHT22;5414;59.782;16.378;2023-11-21T13:12:14;0.80;99.90
10726;DHT22;5414;59.782;16.378;2023-11-21T13:17:12;0.50;99.90
10726;DHT22;5414;59.782;16.378;2023-11-21T13:19:38;0.50;99.90
10726;DHT22;5414;59.782;16.378;2023-11-21T13:22:04;0.50;99.90
10726;DHT22;5414;59.782;16.378;2023-11-21T13:24:30;0.60;99.90
10726;DHT22;5414;59.782;16.378;2023-11-21T13:26:57;0.50;99.90
10726;DHT22;5414;59.782;16.378;2023-11-21T13:29:23;0.50;99.90
10726;DHT22;5414;59.782;16.378;2023-11-21T13:36:47;0.40;99.90
10726;DHT22;5414;59.782;16.378;2023-11-21T13:39:13;0.40;99.90
10726;DHT22;5414;59.782;16.378;2023-11-21T13:41:41;0.40;99.90
10726;DHT22;5414;59.782;16.378;2023-11-21T13:44:07;0.40;99.90
10726;DHT22;5414;59.782;16.378;2023-11-21T13:46:51;0.40;99.90
10726;DHT22;5414;59.782;16.378;2023-11-21T13:49:17;0.40;99.90
10726;DHT22;5414;59.782;16.378;2023-11-21T13:51:43;0.50;99.90
10726;DHT22;5414;59.782;16.378;2023-11-21T14:04:18;0.50;99.90
